Time;durP1;ratioP1;P1;durP2;ratioP2;P2;SDS_P1;SDS_P2;PMS_P1;PMS_P2;Temp;Humidity;BMP_temperature;BMP_pressure;BME280_temperature;BME280_humidity;BME280_pressure;Samples;Min_cycle;Max_cycle;Signal;HPM_P1;HPM_P2
2023/03/02 00:02:21;;;;;;;33.72;19.83;;;3.30;99.90;;;;;;4983449;28;20417;-85
2023/03/02 00:04:54;;;;;;;30.92;19.58;;;3.30;99.90;;;;;;4981887;28;20381;-86
2023/03/02 00:07:26;;;;;;;32.97;20.48;;;3.30;99.90;;;;;;4986167;28;20620;-86
2023/03/02 00:09:53;;;;;;;31.67;20.27;;;3.40;99.90;;;;;;4984925;28;20040;-86
2023/03/02 00:12:19;;;;;;;32.28;21.30;;;3.40;99.90;;;;;;4985423;28;20355;-84
2023/03/02 00:14:45;;;;;;;31.42;20.05;;;3.40;99.90;;;;;;5000119;28;20344;-86
2023/03/02 00:17:11;;;;;;;31.27;20.63;;;3.30;99.90;;;;;;5063753;28;20141;-85
2023/03/02 00:19:37;;;;;;;32.03;20.23;;;3.30;99.90;;;;;;4966647;28;20087;-86
2023/03/02 00:22:04;;;;;;;33.00;20.85;;;3.30;99.90;;;;;;4975129;28;20513;-86
2023/03/02 00:24:30;;;;;;;31.33;20.98;;;3.40;99.90;;;;;;4995124;28;20044;-85
2023/03/02 00:26:56;;;;;;;30.67;20.45;;;3.50;99.90;;;;;;5007105;28;20039;-85
2023/03/02 00:29:21;;;;;;;32.15;20.30;;;3.40;99.90;;;;;;5044309;28;20597;-85
2023/03/02 00:31:47;;;;;;;31.40;20.88;;;3.40;99.90;;;;;;5076344;28;20530;-86
2023/03/02 00:34:13;;;;;;;33.67;22.63;;;3.30;99.90;;;;;;5001145;28;20155;-85
2023/03/02 00:36:38;;;;;;;34.58;21.70;;;3.40;99.90;;;;;;4967672;28;20038;-86
2023/03/02 00:39:04;;;;;;;35.70;22.20;;;3.40;99.90;;;;;;4995373;28;20576;-86
2023/03/02 00:41:30;;;;;;;33.63;21.02;;;3.40;99.90;;;;;;4988123;28;20383;-85
2023/03/02 00:43:55;;;;;;;33.08;21.55;;;3.40;99.90;;;;;;4997209;28;20042;-85
2023/03/02 00:46:23;;;;;;;32.65;20.83;;;3.30;99.90;;;;;;4980221;28;20491;-86
2023/03/02 00:48:50;;;;;;;33.85;21.02;;;3.40;99.90;;;;;;4986106;28;20078;-86
2023/03/02 00:51:17;;;;;;;35.38;21.80;;;3.40;99.90;;;;;;4988397;28;20051;-85
2023/03/02 00:53:43;;;;;;;32.97;21.45;;;3.30;99.90;;;;;;5062362;28;20041;-85
2023/03/02 00:56:09;;;;;;;33.75;20.88;;;3.30;99.90;;;;;;4987431;28;20035;-86
2023/03/02 00:58:36;;;;;;;32.17;19.60;;;3.30;99.90;;;;;;4960568;28;20386;-85
2023/03/02 01:01:07;;;;;;;27.77;18.25;;;3.30;99.90;;;;;;4971809;28;20496;-86
2023/03/02 01:03:34;;;;;;;32.83;20.17;;;3.30;99.90;;;;;;4989131;28;20153;-86
2023/03/02 01:06:00;;;;;;;31.88;19.45;;;3.20;99.90;;;;;;4974700;28;20447;-85
2023/03/02 01:08:25;;;;;;;34.03;19.88;;;3.20;99.90;;;;;;5041452;28;20042;-85
2023/03/02 01:10:51;;;;;;;31.13;19.95;;;3.10;99.90;;;;;;5007473;28;20536;-85
2023/03/02 01:13:18;;;;;;;33.30;19.50;;;3.20;99.90;;;;;;4996740;28;20088;-85
2023/03/02 01:15:44;;;;;;;27.15;17.73;;;3.10;99.90;;;;;;4976209;28;20303;-85
2023/03/02 01:18:10;;;;;;;29.98;18.42;;;3.10;99.90;;;;;;4973828;28;20292;-85
2023/03/02 01:20:35;;;;;;;32.92;19.45;;;3.00;99.90;;;;;;4988138;28;20046;-85
2023/03/02 01:23:01;;;;;;;31.00;19.25;;;2.90;99.90;;;;;;4987689;28;20047;-86
2023/03/02 01:25:27;;;;;;;32.53;19.13;;;2.90;99.90;;;;;;4989609;28;20053;-86
2023/03/02 01:27:53;;;;;;;32.17;20.15;;;2.90;99.90;;;;;;4995084;28;20393;-86
2023/03/02 01:30:19;;;;;;;28.30;18.90;;;2.90;99.90;;;;;;4987539;28;20708;-85
2023/03/02 01:32:45;;;;;;;30.38;19.55;;;3.00;99.90;;;;;;5075456;27;20034;-86
2023/03/02 01:35:11;;;;;;;31.20;19.33;;;3.00;99.90;;;;;;4978060;28;20042;-86
2023/03/02 01:37:36;;;;;;;31.58;19.30;;;2.90;99.90;;;;;;4985898;28;20060;-86
2023/03/02 01:40:05;;;;;;;32.50;20.08;;;3.00;99.90;;;;;;4997091;28;20040;-85
2023/03/02 01:42:39;;;;;;;34.55;20.08;;;3.00;99.90;;;;;;4976332;28;20053;-85
2023/03/02 01:45:26;;;;;;;33.75;19.98;;;3.00;99.90;;;;;;5037111;28;20054;-86
2023/03/02 01:47:54;;;;;;;34.67;20.95;;;3.00;99.90;;;;;;4968282;28;20038;-85
2023/03/02 01:50:25;;;;;;;35.33;21.38;;;3.00;99.90;;;;;;4987860;28;20410;-86
2023/03/02 01:52:53;;;;;;;38.15;22.48;;;2.90;99.90;;;;;;4977501;28;20421;-85
2023/03/02 01:55:23;;;;;;;34.30;21.08;;;3.00;99.90;;;;;;5043961;28;20036;-85
2023/03/02 01:57:52;;;;;;;34.92;21.30;;;3.00;99.90;;;;;;4996203;28;20027;-85
2023/03/02 02:00:26;;;;;;;32.35;19.73;;;3.00;99.90;;;;;;5057320;28;20441;-85
2023/03/02 02:02:53;;;;;;;39.38;20.55;;;2.90;99.90;;;;;;5055347;28;20831;-85
2023/03/02 02:05:22;;;;;;;35.42;20.98;;;2.90;99.90;;;;;;4967596;28;20082;-86
2023/03/02 02:07:48;;;;;;;33.60;19.42;;;2.80;99.90;;;;;;5043027;28;20092;-85
2023/03/02 02:10:13;;;;;;;35.22;20.00;;;2.80;99.90;;;;;;4982696;28;20147;-86
2023/03/02 02:12:40;;;;;;;36.85;21.00;;;2.80;99.90;;;;;;5044480;28;20029;-85
2023/03/02 02:15:07;;;;;;;33.67;19.98;;;2.80;99.90;;;;;;5053468;28;20100;-85
2023/03/02 02:17:34;;;;;;;35.13;20.60;;;2.80;99.90;;;;;;4986224;28;20912;-84
2023/03/02 02:20:18;;;;;;;33.85;20.63;;;2.90;99.90;;;;;;4992334;28;20038;-85
2023/03/02 02:23:11;;;;;;;33.53;20.07;;;2.80;99.90;;;;;;4998070;28;20116;-85
2023/03/02 02:25:52;;;;;;;36.25;20.67;;;2.80;99.90;;;;;;5059362;28;20054;-85
2023/03/02 02:28:32;;;;;;;34.47;20.17;;;2.80;99.90;;;;;;5044192;28;20111;-85
2023/03/02 02:31:21;;;;;;;32.45;19.20;;;2.70;99.90;;;;;;5059267;28;20055;-85
2023/03/02 02:33:52;;;;;;;30.20;18.65;;;2.70;99.90;;;;;;5003838;28;20050;-85
2023/03/02 02:36:21;;;;;;;36.10;21.23;;;2.70;99.90;;;;;;5064361;28;20040;-85
2023/03/02 02:38:50;;;;;;;34.38;20.83;;;2.60;99.90;;;;;;5006012;28;20049;-85
2023/03/02 02:41:27;;;;;;;34.13;20.35;;;2.60;99.90;;;;;;5044343;28;20490;-85
2023/03/02 02:43:54;;;;;;;35.72;20.33;;;2.60;99.90;;;;;;4990856;28;20047;-85
2023/03/02 02:46:20;;;;;;;31.65;19.05;;;2.60;99.90;;;;;;4983787;28;20130;-85
2023/03/02 02:48:45;;;;;;;34.28;19.98;;;2.70;99.90;;;;;;5040901;28;20114;-85
2023/03/02 02:51:20;;;;;;;37.75;21.00;;;2.70;99.90;;;;;;5010544;28;20044;-85
2023/03/02 02:53:57;;;;;;;36.35;20.92;;;2.60;99.90;;;;;;4993433;28;20056;-85
2023/03/02 02:56:35;;;;;;;36.97;21.52;;;2.60;99.90;;;;;;5005009;28;20041;-85
2023/03/02 02:59:36;;;;;;;33.85;20.58;;;2.70;99.90;;;;;;4977320;28;20030;-85
2023/03/02 03:02:02;;;;;;;36.75;21.33;;;2.60;99.90;;;;;;4928451;28;20103;-85
2023/03/02 03:04:30;;;;;;;36.25;21.65;;;2.60;99.90;;;;;;4975865;28;20400;-85
2023/03/02 03:07:02;;;;;;;38.58;22.25;;;2.60;99.90;;;;;;5047663;28;20049;-86
2023/03/02 03:09:29;;;;;;;39.40;22.13;;;2.70;99.90;;;;;;4981862;28;20060;-85
2023/03/02 03:12:16;;;;;;;37.05;21.50;;;2.70;99.90;;;;;;4979862;28;20050;-86
2023/03/02 03:14:42;;;;;;;39.33;22.33;;;2.60;99.90;;;;;;4968866;28;20053;-85
2023/03/02 03:17:11;;;;;;;39.70;22.73;;;2.70;99.90;;;;;;4980792;28;20063;-85
2023/03/02 03:19:38;;;;;;;47.22;24.70;;;2.60;99.90;;;;;;5053223;28;20123;-85
2023/03/02 03:22:04;;;;;;;47.67;24.35;;;2.60;99.90;;;;;;4973669;28;20054;-86
2023/03/02 03:24:32;;;;;;;39.88;23.83;;;2.60;99.90;;;;;;4964100;28;20477;-84
2023/03/02 03:26:59;;;;;;;43.05;24.63;;;2.50;99.90;;;;;;4965132;28;20039;-86
2023/03/02 03:29:30;;;;;;;47.95;23.15;;;2.60;99.90;;;;;;4975941;28;20050;-85
2023/03/02 03:31:59;;;;;;;44.28;23.48;;;2.50;99.90;;;;;;4960056;28;20073;-85
2023/03/02 03:34:25;;;;;;;49.38;24.77;;;2.50;99.90;;;;;;4982353;28;20398;-85
2023/03/02 03:36:51;;;;;;;44.90;23.42;;;2.60;99.90;;;;;;4969481;28;20113;-85
2023/03/02 03:39:17;;;;;;;53.38;26.13;;;2.60;99.90;;;;;;4990536;28;20117;-85
2023/03/02 03:41:44;;;;;;;54.30;25.83;;;2.60;99.90;;;;;;4963505;28;20079;-86
2023/03/02 03:44:10;;;;;;;49.80;26.25;;;2.60;99.90;;;;;;4979827;28;20034;-85
2023/03/02 03:46:38;;;;;;;49.97;24.98;;;2.60;99.90;;;;;;4965895;28;20286;-85
2023/03/02 03:49:06;;;;;;;50.47;26.23;;;2.50;99.90;;;;;;4965683;28;20038;-85
2023/03/02 03:51:34;;;;;;;50.78;25.55;;;2.40;99.90;;;;;;4988141;28;20076;-86
2023/03/02 03:54:01;;;;;;;56.33;26.38;;;2.60;99.90;;;;;;5068527;28;20038;-85
2023/03/02 03:56:29;;;;;;;56.47;27.48;;;2.50;99.90;;;;;;4982649;28;20046;-85
2023/03/02 03:59:07;;;;;;;52.65;26.75;;;2.60;99.90;;;;;;4985207;28;20141;-85
2023/03/02 04:01:40;;;;;;;63.65;28.05;;;2.50;99.90;;;;;;4981054;28;20041;-86
2023/03/02 04:04:13;;;;;;;60.05;26.77;;;2.50;99.90;;;;;;4994038;28;20549;-85
2023/03/02 04:06:39;;;;;;;56.47;28.02;;;2.40;99.90;;;;;;4977043;28;20052;-86
2023/03/02 04:09:05;;;;;;;55.95;28.63;;;2.40;99.90;;;;;;4981285;28;20168;-85
2023/03/02 04:11:36;;;;;;;58.80;28.95;;;2.40;99.90;;;;;;4984168;28;20542;-85
2023/03/02 04:14:03;;;;;;;58.85;27.02;;;2.50;99.90;;;;;;5062872;28;20438;-85
2023/03/02 04:16:29;;;;;;;54.63;28.02;;;2.50;99.90;;;;;;4962445;28;20457;-85
2023/03/02 04:18:56;;;;;;;66.30;27.02;;;2.50;99.90;;;;;;4969875;28;20035;-85
2023/03/02 04:21:21;;;;;;;83.10;30.05;;;2.50;99.90;;;;;;4972200;28;20486;-85
2023/03/02 04:23:47;;;;;;;60.38;28.25;;;2.60;99.90;;;;;;4989005;28;20088;-85
2023/03/02 04:26:13;;;;;;;80.07;30.52;;;2.40;99.90;;;;;;4980800;28;20147;-85
2023/03/02 04:28:40;;;;;;;74.20;28.63;;;2.50;99.90;;;;;;4978992;28;20063;-86
2023/03/02 04:31:06;;;;;;;98.53;31.45;;;2.50;99.90;;;;;;4980449;28;20104;-85
2023/03/02 04:33:31;;;;;;;85.80;31.33;;;2.50;99.90;;;;;;4966485;28;20648;-85
2023/03/02 04:35:57;;;;;;;126.10;31.60;;;2.50;99.90;;;;;;4970522;28;20038;-86
2023/03/02 04:38:23;;;;;;;69.50;31.30;;;2.40;99.90;;;;;;4969922;28;20038;-85
2023/03/02 04:40:50;;;;;;;215.93;36.38;;;2.50;99.90;;;;;;5082384;27;20343;-85
2023/03/02 04:43:15;;;;;;;219.63;39.03;;;2.20;99.90;;;;;;5016438;28;20314;-85
2023/03/02 04:45:41;;;;;;;103.03;31.40;;;2.20;99.90;;;;;;4988782;28;20044;-85
2023/03/02 04:48:07;;;;;;;100.35;31.70;;;2.30;99.90;;;;;;5001424;28;20129;-84
2023/03/02 04:50:33;;;;;;;93.00;31.48;;;2.50;99.90;;;;;;5087402;27;20050;-85
2023/03/02 04:52:59;;;;;;;90.38;31.20;;;2.30;99.90;;;;;;5006568;28;20042;-85
2023/03/02 04:55:26;;;;;;;166.63;34.28;;;2.40;99.90;;;;;;5064815;28;20486;-85
2023/03/02 04:57:52;;;;;;;157.65;34.15;;;2.40;99.90;;;;;;5016190;28;20034;-85
2023/03/02 05:00:21;;;;;;;170.20;33.17;;;2.30;99.90;;;;;;5010040;28;20059;-85
2023/03/02 05:02:47;;;;;;;90.60;29.90;;;2.40;99.90;;;;;;4971395;28;20083;-85
2023/03/02 05:05:23;;;;;;;86.68;29.83;;;2.30;99.90;;;;;;5062309;28;20071;-85
2023/03/02 05:07:49;;;;;;;110.47;31.17;;;2.30;99.90;;;;;;4989503;28;20457;-85
2023/03/02 05:10:16;;;;;;;184.52;33.67;;;2.30;99.90;;;;;;5045226;28;20458;-85
2023/03/02 05:12:57;;;;;;;157.50;31.30;;;2.30;99.90;;;;;;4986013;28;20066;-84
2023/03/02 05:15:29;;;;;;;125.78;31.88;;;2.20;99.90;;;;;;4996151;28;20378;-85
2023/03/02 05:17:55;;;;;;;412.42;46.67;;;2.30;99.90;;;;;;5041663;28;20678;-85
2023/03/02 05:20:26;;;;;;;108.47;29.63;;;2.20;99.90;;;;;;4964505;28;20058;-85
2023/03/02 05:22:54;;;;;;;395.88;45.15;;;2.30;99.90;;;;;;4973302;28;20741;-85
2023/03/02 05:25:20;;;;;;;142.32;33.17;;;2.10;99.90;;;;;;5061445;28;20069;-85
2023/03/02 05:27:46;;;;;;;99.15;29.13;;;2.20;99.90;;;;;;4985095;28;20489;-85
2023/03/02 05:30:13;;;;;;;104.20;29.17;;;2.30;99.90;;;;;;5037364;28;20081;-85
2023/03/02 05:32:38;;;;;;;126.25;32.35;;;2.20;99.90;;;;;;4980315;28;20038;-85
2023/03/02 05:35:05;;;;;;;242.07;35.25;;;2.30;99.90;;;;;;4983926;28;20411;-84
2023/03/02 05:37:31;;;;;;;125.20;31.85;;;2.30;99.90;;;;;;4991860;28;20575;-85
2023/03/02 05:39:57;;;;;;;78.55;29.02;;;2.30;99.90;;;;;;4990150;28;20042;-85
2023/03/02 05:42:22;;;;;;;264.58;36.90;;;2.20;99.90;;;;;;4965442;28;20050;-85
2023/03/02 05:44:48;;;;;;;157.88;32.40;;;2.40;99.90;;;;;;4963916;28;20402;-85
2023/03/02 05:47:14;;;;;;;166.30;35.95;;;2.40;99.90;;;;;;4958551;28;20043;-85
2023/03/02 05:49:40;;;;;;;109.30;32.30;;;2.30;99.90;;;;;;4984882;28;20083;-86
2023/03/02 05:52:05;;;;;;;184.27;36.75;;;2.20;99.90;;;;;;4984862;28;20486;-85
2023/03/02 05:54:31;;;;;;;286.05;43.13;;;2.50;99.90;;;;;;4980675;28;20450;-85
2023/03/02 05:56:57;;;;;;;108.07;32.20;;;2.30;99.90;;;;;;4994763;28;20507;-85
2023/03/02 05:59:23;;;;;;;139.68;32.75;;;2.30;99.90;;;;;;5000900;28;20505;-85
2023/03/02 06:01:49;;;;;;;159.63;31.80;;;2.40;99.90;;;;;;5020592;28;20036;-85
2023/03/02 06:04:15;;;;;;;120.10;28.67;;;2.30;99.90;;;;;;5044607;28;20039;-85
2023/03/02 06:06:40;;;;;;;156.18;33.30;;;2.40;99.90;;;;;;4999023;28;20081;-86
2023/03/02 06:09:06;;;;;;;146.20;31.48;;;2.20;99.90;;;;;;4997715;28;20322;-85
2023/03/02 06:11:32;;;;;;;281.90;37.85;;;2.30;99.90;;;;;;4993471;28;20084;-85
2023/03/02 06:13:57;;;;;;;130.30;29.33;;;2.30;99.90;;;;;;4996555;28;20155;-85
2023/03/02 06:16:26;;;;;;;144.15;31.35;;;2.30;99.90;;;;;;4983836;28;20110;-85
2023/03/02 06:18:52;;;;;;;85.53;27.85;;;2.20;99.90;;;;;;4981205;28;20046;-85
2023/03/02 06:21:17;;;;;;;97.15;28.42;;;2.30;99.90;;;;;;4986434;28;20065;-85
2023/03/02 06:23:43;;;;;;;98.82;28.67;;;2.30;99.90;;;;;;4984409;28;20053;-86
2023/03/02 06:26:10;;;;;;;95.45;28.00;;;2.20;99.90;;;;;;4994487;28;20476;-86
2023/03/02 06:28:36;;;;;;;88.50;28.48;;;2.30;99.90;;;;;;4994636;28;20407;-85
2023/03/02 06:31:02;;;;;;;104.57;28.08;;;2.20;99.90;;;;;;5045450;28;20063;-85
2023/03/02 06:33:29;;;;;;;92.95;27.70;;;2.30;99.90;;;;;;4990833;28;20122;-86
2023/03/02 06:35:55;;;;;;;173.38;34.85;;;2.10;99.90;;;;;;4999234;28;20052;-85
2023/03/02 06:38:20;;;;;;;160.45;31.63;;;2.20;99.90;;;;;;5013330;28;20628;-85
2023/03/02 06:40:46;;;;;;;112.38;27.70;;;2.10;99.90;;;;;;4973430;28;20045;-84
2023/03/02 06:43:12;;;;;;;105.40;29.33;;;2.30;99.90;;;;;;4968096;28;20105;-82
2023/03/02 06:45:38;;;;;;;102.53;29.33;;;2.40;99.90;;;;;;4974245;28;20058;-83
2023/03/02 06:48:05;;;;;;;95.15;31.67;;;2.30;99.90;;;;;;4990553;28;20052;-82
2023/03/02 06:50:32;;;;;;;104.13;29.15;;;2.30;99.90;;;;;;5042891;28;20078;-83
2023/03/02 06:52:58;;;;;;;91.63;29.70;;;2.30;99.90;;;;;;4970512;28;20045;-83
2023/03/02 06:55:24;;;;;;;168.80;34.05;;;2.40;99.90;;;;;;4987235;28;20561;-83
2023/03/02 06:57:50;;;;;;;120.57;30.10;;;2.30;99.90;;;;;;4984540;28;20036;-83
2023/03/02 07:00:23;;;;;;;120.70;28.83;;;2.50;99.90;;;;;;5055182;28;20050;-83
2023/03/02 07:02:50;;;;;;;90.25;29.60;;;2.40;99.90;;;;;;4983030;28;20034;-83
2023/03/02 07:05:16;;;;;;;116.45;31.67;;;2.60;99.90;;;;;;4977700;28;20504;-83
2023/03/02 07:07:42;;;;;;;99.45;28.23;;;2.50;99.90;;;;;;4969088;28;20099;-83
2023/03/02 07:10:10;;;;;;;99.47;30.05;;;2.60;99.90;;;;;;4987594;28;20230;-83
2023/03/02 07:12:36;;;;;;;106.70;27.50;;;2.50;99.90;;;;;;4949448;28;20045;-83
2023/03/02 07:15:03;;;;;;;100.90;27.90;;;2.60;99.90;;;;;;4971551;28;20038;-83
2023/03/02 07:17:28;;;;;;;120.43;29.85;;;2.50;99.90;;;;;;5054016;28;20129;-83
2023/03/02 07:19:54;;;;;;;76.20;26.45;;;2.70;99.90;;;;;;4978281;28;20042;-83
2023/03/02 07:22:20;;;;;;;124.97;27.55;;;2.50;99.90;;;;;;4978203;28;20449;-83
2023/03/02 07:24:46;;;;;;;61.50;23.75;;;2.50;99.90;;;;;;4975488;28;20549;-83
2023/03/02 07:27:12;;;;;;;101.13;25.30;;;2.50;99.90;;;;;;4960526;28;20028;-83
2023/03/02 07:29:37;;;;;;;69.72;23.58;;;2.40;99.90;;;;;;4989178;28;20058;-83
2023/03/02 07:32:05;;;;;;;97.32;26.90;;;2.60;99.90;;;;;;4976527;28;20060;-83
2023/03/02 07:34:31;;;;;;;120.97;27.40;;;2.50;99.90;;;;;;4966371;28;20034;-83
2023/03/02 07:36:56;;;;;;;83.00;23.52;;;2.50;99.90;;;;;;4995758;28;20051;-83
2023/03/02 07:39:22;;;;;;;79.88;24.27;;;2.60;99.90;;;;;;4980012;28;20042;-83
2023/03/02 07:41:48;;;;;;;72.07;23.75;;;2.40;99.90;;;;;;4993581;28;20049;-83
2023/03/02 07:44:14;;;;;;;76.38;23.55;;;2.50;99.90;;;;;;4995513;28;20099;-83
2023/03/02 07:46:42;;;;;;;142.70;28.23;;;2.50;99.90;;;;;;5044648;28;20488;-83
2023/03/02 07:49:11;;;;;;;65.28;25.10;;;2.50;99.90;;;;;;5057600;28;20040;-83
2023/03/02 07:51:36;;;;;;;83.13;24.63;;;2.60;99.90;;;;;;4977091;28;20049;-83
2023/03/02 07:54:03;;;;;;;104.05;26.13;;;2.70;99.90;;;;;;4979789;28;20046;-83
2023/03/02 07:56:29;;;;;;;68.53;24.60;;;2.70;99.90;;;;;;5057263;28;20111;-83
2023/03/02 07:58:55;;;;;;;69.68;23.23;;;2.70;99.90;;;;;;5059938;28;20035;-83
2023/03/02 08:01:20;;;;;;;119.97;27.52;;;2.60;99.90;;;;;;4978466;28;20069;-82
2023/03/02 08:03:46;;;;;;;98.97;25.83;;;2.50;99.90;;;;;;4984585;28;20562;-83
2023/03/02 08:06:12;;;;;;;43.35;21.58;;;2.30;99.90;;;;;;4993442;28;20054;-83
2023/03/02 08:08:38;;;;;;;94.50;24.60;;;2.40;99.90;;;;;;4979363;28;20083;-83
2023/03/02 08:11:10;;;;;;;82.50;25.45;;;2.40;99.90;;;;;;5058915;28;20058;-83
2023/03/02 08:13:36;;;;;;;51.40;20.98;;;2.30;99.90;;;;;;4993586;28;20042;-82
2023/03/02 08:16:05;;;;;;;56.25;22.08;;;2.30;99.90;;;;;;5078096;28;20463;-83
2023/03/02 08:18:32;;;;;;;52.38;23.15;;;2.30;99.90;;;;;;4990501;28;20809;-83
2023/03/02 08:20:58;;;;;;;55.88;20.33;;;2.40;99.90;;;;;;5004812;28;20061;-83
2023/03/02 08:23:24;;;;;;;40.75;21.95;;;2.40;99.90;;;;;;5080356;28;20042;-82
2023/03/02 08:25:52;;;;;;;41.83;20.58;;;2.50;99.90;;;;;;4992866;28;20095;-82
2023/03/02 08:28:18;;;;;;;45.03;21.20;;;2.50;99.90;;;;;;4983030;28;20474;-82
2023/03/02 08:30:44;;;;;;;51.33;21.63;;;2.80;99.90;;;;;;4992895;28;20477;-83
2023/03/02 08:33:10;;;;;;;46.38;21.77;;;2.60;99.90;;;;;;4997961;28;20096;-83
2023/03/02 08:35:36;;;;;;;65.13;23.20;;;2.60;99.90;;;;;;4966166;28;20497;-83
2023/03/02 08:38:01;;;;;;;78.22;25.35;;;2.70;99.90;;;;;;4973743;28;20073;-83
2023/03/02 08:40:27;;;;;;;53.17;22.50;;;2.70;99.90;;;;;;5003549;28;20068;-82
2023/03/02 08:42:56;;;;;;;75.22;23.42;;;2.80;99.90;;;;;;4995394;28;20100;-83
2023/03/02 08:45:25;;;;;;;56.28;23.55;;;2.60;99.90;;;;;;5002351;28;20475;-83
2023/03/02 08:47:53;;;;;;;50.40;23.25;;;2.80;99.90;;;;;;4990676;28;20042;-83
2023/03/02 08:50:20;;;;;;;48.33;21.38;;;3.00;99.90;;;;;;4987892;28;20194;-83
2023/03/02 08:52:46;;;;;;;54.97;22.45;;;3.00;99.90;;;;;;4991521;28;20518;-83
2023/03/02 08:55:12;;;;;;;55.72;23.33;;;2.80;99.90;;;;;;5058755;28;20458;-83
2023/03/02 08:57:40;;;;;;;39.55;21.55;;;2.90;99.90;;;;;;4990118;28;20257;-84
2023/03/02 09:00:08;;;;;;;42.38;22.70;;;3.10;99.90;;;;;;5005222;28;20036;-82
2023/03/02 09:02:33;;;;;;;38.95;21.75;;;3.10;99.90;;;;;;4995638;28;20038;-83
2023/03/02 09:04:59;;;;;;;36.15;20.55;;;3.40;99.90;;;;;;4998319;28;20041;-83
2023/03/02 09:07:25;;;;;;;39.08;20.73;;;3.70;99.90;;;;;;5053333;28;20139;-83
2023/03/02 09:09:50;;;;;;;36.85;21.42;;;3.80;99.90;;;;;;4987124;28;20034;-83
2023/03/02 09:12:16;;;;;;;35.95;20.60;;;3.80;99.90;;;;;;5075802;28;20178;-83
2023/03/02 09:14:42;;;;;;;36.63;20.70;;;3.90;99.90;;;;;;4980204;28;20045;-83
2023/03/02 09:17:07;;;;;;;45.30;22.50;;;3.90;99.90;;;;;;5001782;28;20030;-83
2023/03/02 09:19:40;;;;;;;37.10;20.80;;;3.50;99.90;;;;;;4989415;28;20110;-83
2023/03/02 09:22:09;;;;;;;45.03;21.70;;;3.80;99.90;;;;;;4969810;28;20489;-83
2023/03/02 09:24:35;;;;;;;38.25;21.25;;;3.70;99.90;;;;;;4993511;28;20711;-83
2023/03/02 09:27:02;;;;;;;37.40;19.95;;;3.50;99.90;;;;;;4969904;28;20038;-83
2023/03/02 09:29:28;;;;;;;45.53;21.40;;;3.40;99.90;;;;;;5001465;28;20435;-83
2023/03/02 09:31:54;;;;;;;38.50;20.13;;;3.30;99.90;;;;;;4990910;28;20053;-83
2023/03/02 09:34:23;;;;;;;32.50;19.55;;;3.40;99.90;;;;;;4994487;28;20044;-82
2023/03/02 09:36:48;;;;;;;42.65;21.02;;;3.60;99.90;;;;;;4982713;28;20035;-83
2023/03/02 09:39:14;;;;;;;32.55;19.85;;;3.60;99.90;;;;;;4978847;28;20038;-83
2023/03/02 09:41:58;;;;;;;50.75;22.48;;;3.60;99.90;;;;;;4985555;28;20437;-83
2023/03/02 09:44:48;;;;;;;38.05;22.20;;;3.20;99.90;;;;;;4985040;28;20462;-83
2023/03/02 09:47:36;;;;;;;36.08;21.05;;;3.10;99.90;;;;;;5057781;28;20165;-83
2023/03/02 09:50:23;;;;;;;38.17;19.75;;;3.60;99.90;;;;;;4961933;28;20310;-83
2023/03/02 09:52:52;;;;;;;34.42;20.00;;;3.40;99.90;;;;;;5058742;28;20474;-82
2023/03/02 09:55:22;;;;;;;35.25;19.58;;;3.90;99.90;;;;;;5077130;27;20079;-83
2023/03/02 09:57:49;;;;;;;34.10;20.40;;;4.10;99.90;;;;;;4995119;28;20886;-83
2023/03/02 10:00:29;;;;;;;33.53;19.95;;;3.90;99.90;;;;;;4988827;28;20104;-82
2023/03/02 10:02:59;;;;;;;31.92;18.58;;;3.90;99.90;;;;;;5075981;28;20040;-83
2023/03/02 10:05:33;;;;;;;37.60;21.10;;;4.10;99.90;;;;;;4985734;28;20049;-83
2023/03/02 10:07:59;;;;;;;36.23;21.17;;;4.50;99.90;;;;;;4982263;28;20034;-83
2023/03/02 10:10:43;;;;;;;32.53;19.13;;;4.70;99.90;;;;;;4979684;28;20384;-83
2023/03/02 10:13:21;;;;;;;31.67;18.73;;;4.80;99.90;;;;;;4979900;28;20035;-83
2023/03/02 10:15:57;;;;;;;30.38;19.13;;;4.90;99.90;;;;;;4985112;28;20034;-83
2023/03/02 10:18:42;;;;;;;30.75;17.90;;;4.80;99.90;;;;;;5042518;28;20030;-83
2023/03/02 10:21:21;;;;;;;30.70;18.48;;;5.20;99.90;;;;;;4980933;28;20043;-83
2023/03/02 10:24:09;;;;;;;30.58;19.30;;;5.20;99.90;;;;;;4970202;28;20038;-82
2023/03/02 10:26:41;;;;;;;29.92;19.15;;;5.00;99.90;;;;;;4975978;28;20661;-83
2023/03/02 10:29:22;;;;;;;30.40;19.63;;;5.00;99.90;;;;;;5002781;28;20053;-83
2023/03/02 10:31:54;;;;;;;31.15;18.88;;;4.80;99.90;;;;;;4975025;28;20461;-83
2023/03/02 10:34:23;;;;;;;29.27;18.27;;;4.90;99.90;;;;;;4984433;28;20219;-83
2023/03/02 10:36:48;;;;;;;29.92;17.75;;;4.70;99.90;;;;;;4989490;28;20026;-83
2023/03/02 10:39:16;;;;;;;29.30;17.65;;;4.50;99.90;;;;;;4972876;28;20464;-82
2023/03/02 10:42:02;;;;;;;30.52;17.25;;;5.00;99.90;;;;;;4990244;28;20576;-83
2023/03/02 10:44:33;;;;;;;28.85;16.95;;;3.80;99.90;;;;;;4988227;28;20117;-82
2023/03/02 10:47:01;;;;;;;27.42;16.38;;;3.70;99.90;;;;;;4986200;28;20502;-82
2023/03/02 10:49:35;;;;;;;26.48;16.42;;;3.80;99.90;;;;;;4975410;28;20775;-83
2023/03/02 10:52:15;;;;;;;27.33;15.77;;;4.00;99.90;;;;;;5042737;28;20512;-83
2023/03/02 10:54:41;;;;;;;23.23;15.52;;;3.60;99.90;;;;;;4980137;28;20034;-83
2023/03/02 10:57:29;;;;;;;26.98;16.55;;;3.60;99.90;;;;;;5000560;28;20049;-83
2023/03/02 11:00:23;;;;;;;26.25;15.80;;;3.70;99.90;;;;;;5056535;28;20400;-82
2023/03/02 11:02:48;;;;;;;26.88;15.35;;;3.60;99.90;;;;;;4985263;28;20166;-82
2023/03/02 11:05:33;;;;;;;22.50;14.38;;;4.20;99.90;;;;;;4974892;28;20149;-83
2023/03/02 11:08:05;;;;;;;23.02;14.95;;;4.00;99.90;;;;;;4994515;28;20042;-83
2023/03/02 11:10:40;;;;;;;22.90;14.73;;;3.90;99.90;;;;;;4984398;28;20043;-83
2023/03/02 11:13:22;;;;;;;25.92;15.73;;;3.70;99.90;;;;;;4968691;28;20089;-83
2023/03/02 11:15:55;;;;;;;24.95;14.27;;;3.70;99.90;;;;;;4978542;28;20096;-83
2023/03/02 11:18:29;;;;;;;23.23;15.00;;;3.80;99.90;;;;;;4993037;28;20331;-83
2023/03/02 11:21:03;;;;;;;25.70;15.38;;;4.10;99.90;;;;;;4991546;28;20073;-82
2023/03/02 11:23:47;;;;;;;24.88;15.02;;;4.30;99.90;;;;;;4982027;28;20269;-83
2023/03/02 11:26:24;;;;;;;21.10;12.70;;;4.50;99.90;;;;;;4985586;28;20662;-83
2023/03/02 11:28:52;;;;;;;22.35;13.65;;;4.20;99.90;;;;;;4998242;28;22111;-83
2023/03/02 11:31:44;;;;;;;24.45;13.60;;;4.60;99.90;;;;;;5038824;28;20541;-83
2023/03/02 11:34:23;;;;;;;21.38;13.52;;;5.00;99.90;;;;;;5004002;28;20046;-83
2023/03/02 11:37:16;;;;;;;20.83;12.65;;;5.40;99.90;;;;;;4989653;28;20498;-82
2023/03/02 11:39:48;;;;;;;22.50;13.07;;;5.70;99.90;;;;;;4963366;28;20060;-83
2023/03/02 11:42:25;;;;;;;19.02;12.30;;;6.30;99.90;;;;;;5055649;28;20034;-83
2023/03/02 11:44:51;;;;;;;19.20;12.20;;;6.50;99.90;;;;;;4966567;28;20210;-83
2023/03/02 11:47:18;;;;;;;21.45;12.77;;;6.80;99.90;;;;;;5009612;28;20035;-83
2023/03/02 11:50:02;;;;;;;25.10;14.68;;;7.10;99.90;;;;;;4985362;28;20413;-82
2023/03/02 11:52:32;;;;;;;24.17;14.57;;;6.20;99.90;;;;;;4987114;28;20376;-83
2023/03/02 11:55:29;;;;;;;22.65;14.23;;;5.80;99.90;;;;;;4979188;28;20042;-83
2023/03/02 11:58:00;;;;;;;21.70;13.73;;;6.70;99.90;;;;;;4995628;28;20484;-83
2023/03/02 12:00:35;;;;;;;28.38;14.80;;;6.40;99.90;;;;;;4966116;28;20666;-83
2023/03/02 12:03:03;;;;;;;26.23;14.85;;;6.80;99.90;;;;;;4994112;28;20373;-83
2023/03/02 12:05:34;;;;;;;29.15;14.93;;;6.80;99.90;;;;;;4983736;28;20423;-83
2023/03/02 12:08:06;;;;;;;24.00;13.63;;;7.20;99.90;;;;;;4995920;28;20042;-83
2023/03/02 12:10:40;;;;;;;32.00;15.25;;;7.50;99.90;;;;;;4990419;28;20074;-83
2023/03/02 12:13:17;;;;;;;25.63;13.93;;;7.70;99.90;;;;;;5013617;28;20547;-83
2023/03/02 12:15:51;;;;;;;28.60;15.63;;;8.00;99.90;;;;;;5002557;28;20041;-83
2023/03/02 12:18:19;;;;;;;35.87;17.13;;;8.40;99.90;;;;;;4994154;28;20039;-83
2023/03/02 12:20:57;;;;;;;32.22;16.08;;;7.50;99.90;;;;;;5064677;28;20281;-83
2023/03/02 12:23:24;;;;;;;26.55;15.68;;;7.40;99.90;;;;;;4993485;28;20504;-83
2023/03/02 12:26:20;;;;;;;28.20;15.75;;;7.00;99.90;;;;;;4998499;28;20118;-83
2023/03/02 12:29:09;;;;;;;34.10;16.70;;;7.10;99.90;;;;;;4969192;28;20514;-83
2023/03/02 12:31:46;;;;;;;33.92;17.08;;;7.30;99.90;;;;;;5078540;28;20537;-82
2023/03/02 12:34:33;;;;;;;33.15;17.63;;;7.30;99.90;;;;;;4980813;28;20061;-83
2023/03/02 12:37:05;;;;;;;36.42;18.20;;;7.30;99.90;;;;;;4965777;28;20042;-83
2023/03/02 12:40:01;;;;;;;31.73;17.27;;;7.30;1.00;;;;;;4998061;28;20093;-83
2023/03/02 12:42:54;;;;;;;29.65;15.27;;;7.00;1.00;;;;;;5077149;28;20578;-83
2023/03/02 12:45:58;;;;;;;29.35;15.52;;;6.40;99.90;;;;;;4994290;28;20042;-83
2023/03/02 12:48:50;;;;;;;29.58;16.20;;;6.70;1.00;;;;;;5007614;28;20101;-83
2023/03/02 12:51:21;;;;;;;28.98;16.88;;;7.10;1.00;;;;;;5064451;28;20485;-83